Time;durP1;ratioP1;P1;durP2;ratioP2;P2;SDS_P1;SDS_P2;PMS_P1;PMS_P2;Temp;Humidity;BMP_temperature;BMP_pressure;BME280_temperature;BME280_humidity;BME280_pressure;Samples;Min_cycle;Max_cycle;Signal;HPM_P1;HPM_P2
2023/10/18 00:00:58;;;;;;;1.67;1.53;;;13.20;61.60;;;;;;5077796;28;20426;-89
2023/10/18 00:03:29;;;;;;;2.63;2.00;;;13.30;62.00;;;;;;5082133;28;20461;-89
2023/10/18 00:05:58;;;;;;;2.10;1.80;;;13.20;61.30;;;;;;5083524;28;20905;-87
2023/10/18 00:08:28;;;;;;;3.10;1.93;;;13.30;61.70;;;;;;5082302;28;20472;-86
2023/10/18 00:11:01;;;;;;;2.50;2.23;;;13.30;61.60;;;;;;5079106;28;20426;-82
2023/10/18 00:13:30;;;;;;;2.03;1.77;;;13.20;60.70;;;;;;5095024;28;20457;-87
2023/10/18 00:16:02;;;;;;;2.20;1.73;;;13.20;61.30;;;;;;5079496;28;20462;-86
2023/10/18 00:18:32;;;;;;;4.20;2.10;;;13.20;61.90;;;;;;5087557;28;20467;-86
2023/10/18 00:21:01;;;;;;;2.50;2.30;;;13.20;61.70;;;;;;5055216;28;20468;-87
2023/10/18 00:23:32;;;;;;;1.87;1.67;;;13.20;62.00;;;;;;5064408;28;20547;-84
2023/10/18 00:26:04;;;;;;;2.37;1.77;;;13.30;61.70;;;;;;5054953;28;20817;-86
2023/10/18 00:28:34;;;;;;;2.07;1.87;;;13.20;61.80;;;;;;5056179;28;20463;-89
2023/10/18 00:31:11;;;;;;;2.30;1.90;;;13.20;61.00;;;;;;5064056;28;20786;-84
2023/10/18 00:33:40;;;;;;;2.83;2.20;;;13.20;61.50;;;;;;5059953;28;20461;-86
2023/10/18 00:36:11;;;;;;;2.63;1.90;;;13.20;61.00;;;;;;5076243;28;20452;-84
2023/10/18 00:38:41;;;;;;;2.40;2.20;;;13.20;61.00;;;;;;5074785;28;21081;-87
2023/10/18 00:41:14;;;;;;;2.87;1.90;;;13.20;61.50;;;;;;5093257;28;20508;-83
2023/10/18 00:43:45;;;;;;;2.30;2.10;;;13.20;61.40;;;;;;5094869;28;20820;-86
2023/10/18 00:46:14;;;;;;;2.43;2.10;;;13.20;61.70;;;;;;5074572;28;20448;-85
2023/10/18 00:48:45;;;;;;;2.03;1.87;;;13.20;61.70;;;;;;5067395;28;20458;-87
2023/10/18 00:51:17;;;;;;;2.90;2.47;;;13.20;61.10;;;;;;5074308;28;20947;-87
2023/10/18 00:53:50;;;;;;;2.10;1.57;;;13.10;61.10;;;;;;5074625;28;20968;-88
2023/10/18 00:56:19;;;;;;;3.07;2.27;;;13.10;61.70;;;;;;5073848;28;20419;-86
2023/10/18 00:58:47;;;;;;;3.07;1.57;;;13.20;61.20;;;;;;5087473;28;20471;-88
2023/10/18 01:01:17;;;;;;;3.63;2.20;;;13.20;63.10;;;;;;5093341;28;20430;-85
2023/10/18 01:03:49;;;;;;;2.20;1.90;;;13.20;61.30;;;;;;5082691;28;20538;-85
2023/10/18 01:06:24;;;;;;;3.30;2.13;;;13.20;61.10;;;;;;5073656;28;20437;-83
2023/10/18 01:08:55;;;;;;;2.20;2.00;;;13.10;60.90;;;;;;5088370;28;20471;-88
2023/10/18 01:11:27;;;;;;;2.60;1.63;;;13.10;61.10;;;;;;5061381;28;20430;-83
2023/10/18 01:13:57;;;;;;;3.00;2.00;;;13.10;61.50;;;;;;5057633;28;20569;-88
2023/10/18 01:16:29;;;;;;;1.97;1.87;;;13.10;61.30;;;;;;5064642;28;20596;-85
2023/10/18 01:18:59;;;;;;;2.80;2.20;;;13.10;61.60;;;;;;5072989;28;20459;-83
2023/10/18 01:21:27;;;;;;;1.70;1.27;;;13.10;61.10;;;;;;5071967;28;20435;-88
2023/10/18 01:23:59;;;;;;;1.47;1.37;;;13.10;61.50;;;;;;5059359;28;20484;-84
2023/10/18 01:26:31;;;;;;;2.30;1.77;;;13.10;61.10;;;;;;5074677;28;20816;-81
2023/10/18 01:29:05;;;;;;;2.30;1.67;;;13.20;61.50;;;;;;5089418;28;20462;-84
2023/10/18 01:31:35;;;;;;;2.20;1.93;;;13.10;61.10;;;;;;5094035;28;20421;-86
2023/10/18 01:34:04;;;;;;;2.20;1.80;;;13.10;61.00;;;;;;5069460;28;20459;-82
2023/10/18 01:36:33;;;;;;;2.23;2.00;;;13.10;61.10;;;;;;5052733;28;20782;-85
2023/10/18 01:39:01;;;;;;;1.60;1.47;;;13.10;61.50;;;;;;5053531;28;20463;-87
2023/10/18 01:41:33;;;;;;;2.07;1.87;;;13.10;61.40;;;;;;5083417;28;20910;-84
2023/10/18 01:44:06;;;;;;;5.20;1.80;;;13.10;61.30;;;;;;5091631;28;20900;-87
2023/10/18 01:46:36;;;;;;;1.70;1.60;;;13.10;61.50;;;;;;5068271;28;20427;-87
2023/10/18 01:49:06;;;;;;;2.43;2.23;;;13.10;61.00;;;;;;5050934;28;20467;-82
2023/10/18 01:51:35;;;;;;;2.73;2.13;;;13.10;61.00;;;;;;5051790;28;20933;-81
2023/10/18 01:54:09;;;;;;;2.70;1.57;;;13.00;60.70;;;;;;5071050;28;20847;-83
2023/10/18 01:56:41;;;;;;;3.40;1.80;;;13.10;61.50;;;;;;5071786;28;20446;-82
2023/10/18 01:59:13;;;;;;;2.70;1.60;;;13.00;61.40;;;;;;5070414;28;20879;-83
2023/10/18 02:01:44;;;;;;;1.50;1.30;;;13.10;61.40;;;;;;5088432;28;20413;-84
2023/10/18 02:04:23;;;;;;;2.23;2.03;;;13.10;61.60;;;;;;5073901;28;20470;-86
2023/10/18 02:07:17;;;;;;;1.60;1.50;;;13.10;61.00;;;;;;5075105;28;20834;-87
2023/10/18 02:09:48;;;;;;;1.63;1.30;;;13.10;61.50;;;;;;5081288;28;20479;-85
2023/10/18 02:12:20;;;;;;;2.10;1.90;;;13.10;61.30;;;;;;5095276;28;20410;-85
2023/10/18 02:14:51;;;;;;;2.63;1.73;;;13.00;60.70;;;;;;5096152;28;20457;-85
2023/10/18 02:17:21;;;;;;;2.07;1.70;;;13.00;61.20;;;;;;5076623;28;20419;-85
2023/10/18 02:19:50;;;;;;;1.50;1.40;;;13.00;61.50;;;;;;5056070;28;20435;-87
2023/10/18 02:22:19;;;;;;;2.70;1.90;;;13.10;61.60;;;;;;5049048;28;20433;-87
2023/10/18 02:24:50;;;;;;;2.40;2.10;;;13.10;61.50;;;;;;5094679;28;20449;-85
2023/10/18 02:27:23;;;;;;;1.90;1.77;;;13.10;61.50;;;;;;5095234;28;20421;-83
2023/10/18 02:29:52;;;;;;;2.10;1.90;;;13.00;61.40;;;;;;5096562;28;20409;-83
2023/10/18 02:32:32;;;;;;;3.40;1.70;;;13.00;60.50;;;;;;5077939;28;20438;-86
2023/10/18 02:35:04;;;;;;;1.83;1.47;;;13.00;61.30;;;;;;5097113;28;20490;-83
2023/10/18 02:37:32;;;;;;;2.37;1.53;;;13.00;61.50;;;;;;5095672;28;20547;-87
2023/10/18 02:40:08;;;;;;;2.00;1.80;;;13.00;61.50;;;;;;5081398;28;20433;-85
2023/10/18 02:42:39;;;;;;;3.10;2.50;;;13.00;61.10;;;;;;5074544;28;20448;-87
2023/10/18 02:45:12;;;;;;;2.40;1.73;;;13.00;61.30;;;;;;5059330;28;20521;-86
2023/10/18 02:47:42;;;;;;;1.80;1.70;;;13.00;61.40;;;;;;5072437;28;20465;-88
2023/10/18 02:50:14;;;;;;;1.60;1.50;;;13.00;61.60;;;;;;5099321;28;20849;-88
2023/10/18 02:52:45;;;;;;;2.20;1.43;;;13.00;61.50;;;;;;5072788;28;20469;-88
2023/10/18 02:55:17;;;;;;;2.40;1.90;;;13.00;61.30;;;;;;5077214;28;20479;-88
2023/10/18 02:57:48;;;;;;;2.23;2.03;;;13.00;61.10;;;;;;5056931;28;20465;-88
2023/10/18 03:00:19;;;;;;;2.50;2.30;;;13.00;61.00;;;;;;5065876;28;20408;-90
2023/10/18 03:02:50;;;;;;;2.33;2.13;;;13.00;61.00;;;;;;5072032;28;20474;-89
2023/10/18 03:05:20;;;;;;;2.93;1.60;;;13.00;61.10;;;;;;5072533;28;20449;-88
2023/10/18 03:07:48;;;;;;;1.90;1.60;;;13.00;61.20;;;;;;5071930;28;20532;-88
2023/10/18 03:10:26;;;;;;;2.10;1.90;;;13.00;60.90;;;;;;5072029;28;20498;-88
2023/10/18 03:12:56;;;;;;;2.03;1.50;;;13.00;61.10;;;;;;5071385;28;20458;-86
2023/10/18 03:15:25;;;;;;;3.13;1.70;;;12.90;61.00;;;;;;5072708;28;20447;-84
2023/10/18 03:17:56;;;;;;;1.60;1.50;;;12.90;61.10;;;;;;5071949;28;20872;-84
2023/10/18 03:20:24;;;;;;;1.47;1.23;;;12.90;61.50;;;;;;5072417;28;20426;-83
2023/10/18 03:22:55;;;;;;;2.70;1.90;;;12.90;61.50;;;;;;5059839;28;20485;-86
2023/10/18 03:25:27;;;;;;;1.57;1.40;;;12.90;61.20;;;;;;5052792;28;20468;-85
2023/10/18 03:28:00;;;;;;;1.93;1.50;;;12.90;61.10;;;;;;5051609;28;20480;-84
2023/10/18 03:30:44;;;;;;;2.10;1.80;;;12.90;61.50;;;;;;5085112;28;20430;-82
2023/10/18 03:33:13;;;;;;;1.80;1.60;;;12.90;61.20;;;;;;5071521;28;20458;-85
2023/10/18 03:35:46;;;;;;;2.37;2.17;;;12.90;61.20;;;;;;5071735;28;20804;-88
2023/10/18 03:38:17;;;;;;;2.00;1.80;;;12.90;61.10;;;;;;5070314;28;20474;-88
2023/10/18 03:40:48;;;;;;;2.23;1.53;;;12.90;60.80;;;;;;5072256;28;20519;-86
2023/10/18 03:43:26;;;;;;;2.10;1.43;;;12.90;61.30;;;;;;5070482;28;20478;-84
2023/10/18 03:46:09;;;;;;;2.20;1.70;;;12.90;61.60;;;;;;5070476;28;20456;-87
2023/10/18 03:48:44;;;;;;;2.00;1.70;;;12.90;61.50;;;;;;5069693;28;20460;-87
2023/10/18 03:51:18;;;;;;;1.67;1.57;;;12.90;61.30;;;;;;5086749;28;20478;-84
2023/10/18 03:53:51;;;;;;;1.43;1.33;;;12.90;61.20;;;;;;5090816;28;20457;-84
2023/10/18 03:56:21;;;;;;;1.63;1.53;;;12.90;61.50;;;;;;5093116;28;20469;-87
2023/10/18 03:59:00;;;;;;;1.90;1.80;;;12.90;61.40;;;;;;5087153;28;20468;-86
2023/10/18 04:01:39;;;;;;;2.10;1.90;;;12.90;62.90;;;;;;5072568;28;20457;-88
2023/10/18 04:04:08;;;;;;;2.47;1.67;;;12.90;61.60;;;;;;5089916;28;20473;-87
2023/10/18 04:06:38;;;;;;;1.50;1.33;;;12.90;61.10;;;;;;5093536;28;20420;-86
2023/10/18 04:09:16;;;;;;;1.60;1.50;;;12.90;61.30;;;;;;5091134;28;20468;-86
2023/10/18 04:11:45;;;;;;;2.70;2.10;;;12.90;61.40;;;;;;5053202;28;20428;-83
2023/10/18 04:14:16;;;;;;;1.60;1.50;;;12.90;61.10;;;;;;5049653;28;20472;-86
2023/10/18 04:16:47;;;;;;;2.67;2.30;;;12.80;61.20;;;;;;5051671;28;20808;-84
2023/10/18 04:19:19;;;;;;;1.97;1.77;;;12.80;61.20;;;;;;5051598;28;20475;-85
2023/10/18 04:21:53;;;;;;;2.20;1.70;;;12.90;61.50;;;;;;5071318;28;20421;-85
2023/10/18 04:24:23;;;;;;;1.80;1.50;;;12.80;61.20;;;;;;5070725;28;20530;-86
2023/10/18 04:26:53;;;;;;;2.17;1.97;;;12.90;61.60;;;;;;5091061;28;20769;-84
2023/10/18 04:29:26;;;;;;;2.30;1.93;;;12.80;61.30;;;;;;5088360;28;20553;-84
2023/10/18 04:31:56;;;;;;;2.87;1.90;;;12.80;61.10;;;;;;5064823;28;20415;-84
2023/10/18 04:34:29;;;;;;;1.70;1.60;;;12.80;61.20;;;;;;5082902;28;20461;-82
2023/10/18 04:36:59;;;;;;;2.47;1.60;;;12.80;61.00;;;;;;5091373;28;20410;-85
2023/10/18 04:39:29;;;;;;;2.10;1.90;;;12.80;61.10;;;;;;5057382;28;20467;-89
2023/10/18 04:41:58;;;;;;;2.00;1.63;;;12.80;61.40;;;;;;5050631;28;20435;-88
2023/10/18 04:44:28;;;;;;;3.00;1.93;;;12.80;61.40;;;;;;5050538;28;20532;-83
2023/10/18 04:47:01;;;;;;;1.50;1.40;;;12.80;61.30;;;;;;5050564;28;20788;-87
2023/10/18 04:49:36;;;;;;;2.17;1.87;;;12.80;61.60;;;;;;5052048;28;20473;-84
2023/10/18 04:52:06;;;;;;;1.40;1.30;;;12.80;61.20;;;;;;5054065;28;20813;-84
2023/10/18 04:54:38;;;;;;;2.60;2.40;;;12.80;61.70;;;;;;5052775;28;20473;-85
2023/10/18 04:57:10;;;;;;;2.33;2.07;;;12.80;61.00;;;;;;5053927;28;20654;-84
2023/10/18 04:59:45;;;;;;;2.00;1.80;;;12.80;61.40;;;;;;5052399;28;20512;-85
2023/10/18 05:02:18;;;;;;;1.30;1.10;;;12.80;61.50;;;;;;5052924;28;20410;-83
2023/10/18 05:04:46;;;;;;;2.70;1.50;;;12.80;61.60;;;;;;5052467;28;20888;-83
2023/10/18 05:07:17;;;;;;;2.47;1.70;;;12.70;61.50;;;;;;5071935;28;20527;-84
2023/10/18 05:09:46;;;;;;;2.37;1.60;;;12.80;61.40;;;;;;5092444;28;20445;-86
2023/10/18 05:12:28;;;;;;;2.70;2.30;;;12.80;61.50;;;;;;5092748;28;20417;-81
2023/10/18 05:15:09;;;;;;;2.60;1.93;;;12.70;61.00;;;;;;5092122;28;20436;-83
2023/10/18 05:17:42;;;;;;;2.53;2.30;;;12.70;61.30;;;;;;5095073;28;20946;-87
2023/10/18 05:20:25;;;;;;;2.30;1.60;;;12.70;61.30;;;;;;5096178;28;20962;-87
2023/10/18 05:22:59;;;;;;;2.70;1.40;;;12.70;61.50;;;;;;5075725;28;20467;-90
2023/10/18 05:25:35;;;;;;;1.50;1.40;;;12.70;61.60;;;;;;5068934;28;20501;-89
2023/10/18 05:28:09;;;;;;;2.10;1.90;;;12.80;61.80;;;;;;5058868;28;20473;-88
2023/10/18 05:36:29;;;;;;;1.93;1.77;;;12.70;61.30;;;;;;5099398;28;20456;-90
2023/10/18 05:39:17;;;;;;;2.37;2.17;;;12.70;61.40;;;;;;5100760;28;20478;-89
2023/10/18 05:41:49;;;;;;;1.60;1.37;;;12.70;61.60;;;;;;5102434;28;20437;-90
2023/10/18 05:44:20;;;;;;;2.30;2.10;;;12.70;61.50;;;;;;5101914;28;20879;-87
2023/10/18 05:46:50;;;;;;;2.60;1.80;;;12.70;61.50;;;;;;5095986;28;20424;-86
2023/10/18 05:49:23;;;;;;;2.03;1.30;;;12.70;61.20;;;;;;5076877;28;20495;-87
2023/10/18 05:51:59;;;;;;;1.50;1.40;;;12.70;61.50;;;;;;5073398;28;20789;-87
2023/10/18 05:54:28;;;;;;;3.30;1.73;;;12.70;61.60;;;;;;5072970;28;20474;-85
2023/10/18 05:56:58;;;;;;;2.50;1.30;;;12.70;61.60;;;;;;5073651;28;20433;-87
2023/10/18 05:59:31;;;;;;;2.30;1.83;;;12.70;61.60;;;;;;5075277;28;20469;-82
2023/10/18 06:02:09;;;;;;;2.50;2.17;;;12.70;61.50;;;;;;5091344;28;20428;-82
2023/10/18 06:04:42;;;;;;;1.83;1.47;;;12.70;61.60;;;;;;5071308;28;20476;-83
2023/10/18 06:07:12;;;;;;;1.67;1.57;;;12.70;61.30;;;;;;5073297;28;20418;-82
2023/10/18 06:09:48;;;;;;;1.93;1.73;;;12.70;61.50;;;;;;5073490;28;20466;-84
2023/10/18 06:12:22;;;;;;;2.30;1.40;;;12.70;61.50;;;;;;5074363;28;20956;-85
2023/10/18 06:14:52;;;;;;;2.90;2.70;;;12.70;61.70;;;;;;5074631;28;20956;-84
2023/10/18 06:17:26;;;;;;;1.63;1.53;;;12.70;61.20;;;;;;5076039;28;20818;-86
2023/10/18 06:19:58;;;;;;;2.40;2.20;;;12.70;61.50;;;;;;5075270;28;20432;-90
2023/10/18 06:22:39;;;;;;;2.63;2.43;;;12.60;61.40;;;;;;5074720;28;20921;-87
2023/10/18 06:25:24;;;;;;;1.57;1.30;;;12.60;61.20;;;;;;5074427;28;20469;-82
2023/10/18 06:27:54;;;;;;;2.87;2.30;;;12.60;61.60;;;;;;5052143;28;20473;-84
2023/10/18 06:30:24;;;;;;;2.30;2.10;;;12.60;61.40;;;;;;5053278;28;20434;-84
2023/10/18 06:32:55;;;;;;;2.00;1.80;;;12.60;61.50;;;;;;5053124;28;20492;-87
2023/10/18 06:35:27;;;;;;;2.57;1.90;;;12.60;61.60;;;;;;5052505;28;20438;-86
2023/10/18 06:37:56;;;;;;;4.13;2.80;;;12.60;61.40;;;;;;5052583;28;20529;-88
2023/10/18 06:40:40;;;;;;;2.60;1.60;;;12.60;61.20;;;;;;5062793;28;20641;-82
2023/10/18 06:43:26;;;;;;;1.43;1.33;;;12.60;61.60;;;;;;5072154;28;20484;-84
2023/10/18 06:45:54;;;;;;;2.70;1.97;;;12.60;61.50;;;;;;5073589;28;20680;-84
2023/10/18 06:48:26;;;;;;;2.07;1.87;;;12.60;61.60;;;;;;5072647;28;20468;-84
2023/10/18 06:50:55;;;;;;;3.97;1.70;;;12.60;61.50;;;;;;5072538;28;20459;-83
2023/10/18 06:53:25;;;;;;;2.50;2.03;;;12.60;61.40;;;;;;5072040;28;20478;-86
2023/10/18 06:55:58;;;;;;;3.80;3.33;;;12.60;61.60;;;;;;5073188;28;20480;-82
2023/10/18 06:58:43;;;;;;;2.57;2.30;;;12.60;61.10;;;;;;5072240;28;20494;-85
2023/10/18 07:01:19;;;;;;;2.23;1.80;;;12.60;61.50;;;;;;5073459;28;20429;-87
2023/10/18 07:03:50;;;;;;;2.70;1.87;;;12.60;61.60;;;;;;5071612;28;20828;-87
2023/10/18 07:06:23;;;;;;;2.80;1.70;;;12.60;61.70;;;;;;5072227;28;20448;-86
2023/10/18 07:08:52;;;;;;;2.47;1.90;;;12.60;61.60;;;;;;5073641;28;20472;-85
2023/10/18 07:11:22;;;;;;;5.23;4.17;;;12.60;61.70;;;;;;5070709;28;20474;-86
2023/10/18 07:14:05;;;;;;;6.57;5.20;;;12.60;61.10;;;;;;5071254;28;20430;-89
2023/10/18 07:16:38;;;;;;;4.20;3.80;;;12.50;60.90;;;;;;5092155;28;20622;-84
2023/10/18 07:19:21;;;;;;;4.47;4.07;;;12.50;61.20;;;;;;5092697;28;20472;-86
2023/10/18 07:21:50;;;;;;;3.23;2.93;;;12.50;61.10;;;;;;5092391;28;20579;-82
2023/10/18 07:24:20;;;;;;;3.20;2.90;;;12.50;61.20;;;;;;5092978;28;20547;-86
2023/10/18 07:26:49;;;;;;;4.87;2.83;;;12.50;61.30;;;;;;5092441;28;20455;-87
2023/10/18 07:29:20;;;;;;;5.60;3.90;;;12.40;61.20;;;;;;5090923;28;20508;-84
2023/10/18 07:31:49;;;;;;;5.10;3.80;;;12.50;61.20;;;;;;5091417;28;20769;-83
2023/10/18 07:34:19;;;;;;;7.10;3.70;;;12.40;61.10;;;;;;5091833;28;20492;-86
2023/10/18 07:36:47;;;;;;;4.63;3.20;;;12.50;61.40;;;;;;5091679;28;20410;-87
2023/10/18 07:39:17;;;;;;;3.50;2.83;;;12.40;61.10;;;;;;5091290;28;20461;-83
2023/10/18 07:41:46;;;;;;;3.50;2.53;;;12.40;61.20;;;;;;5067575;28;20713;-84
2023/10/18 07:44:14;;;;;;;3.33;2.77;;;12.50;61.50;;;;;;5049666;28;20473;-82
2023/10/18 07:46:42;;;;;;;4.93;3.63;;;12.50;61.50;;;;;;5051897;28;21006;-82
2023/10/18 07:49:14;;;;;;;3.07;2.77;;;12.50;61.20;;;;;;5049439;28;20701;-83
2023/10/18 07:51:49;;;;;;;4.53;3.40;;;12.50;61.50;;;;;;5051436;28;20889;-84
2023/10/18 07:54:20;;;;;;;3.70;3.00;;;12.50;61.30;;;;;;5051232;28;20468;-84
2023/10/18 07:56:54;;;;;;;2.73;2.53;;;12.50;61.30;;;;;;5050859;28;20483;-82
2023/10/18 07:59:29;;;;;;;4.27;2.93;;;12.50;61.50;;;;;;5049485;28;20989;-86
2023/10/18 08:02:23;;;;;;;3.33;3.00;;;12.50;61.40;;;;;;5050580;28;20516;-82
2023/10/18 08:04:51;;;;;;;3.40;3.10;;;12.40;61.20;;;;;;5050089;28;20442;-85
2023/10/18 08:07:27;;;;;;;3.70;2.87;;;12.50;61.20;;;;;;5082028;28;20455;-89
2023/10/18 08:09:58;;;;;;;4.57;3.07;;;12.50;61.40;;;;;;5092546;28;20940;-83
2023/10/18 08:12:30;;;;;;;5.00;3.40;;;12.40;61.10;;;;;;5073952;28;20435;-82
2023/10/18 08:14:58;;;;;;;4.73;3.50;;;12.40;61.20;;;;;;5091518;28;20878;-83
2023/10/18 08:17:43;;;;;;;3.27;2.67;;;12.50;61.30;;;;;;5090496;28;20414;-84
2023/10/18 08:23:18;;;;;;;5.10;3.63;;;12.40;61.20;;;;;;5093564;28;21069;-82
2023/10/18 08:25:51;;;;;;;3.53;2.40;;;12.40;61.20;;;;;;5097033;28;20471;-82
2023/10/18 08:28:19;;;;;;;2.80;2.50;;;12.40;61.30;;;;;;5094265;28;20460;-80
2023/10/18 08:31:16;;;;;;;6.57;3.37;;;12.50;61.50;;;;;;5103225;28;20380;-91
2023/10/18 08:34:05;;;;;;;3.03;2.53;;;12.40;61.40;;;;;;5117570;28;20466;-89
2023/10/18 08:36:50;;;;;;;3.57;3.17;;;12.40;61.50;;;;;;5116525;28;20399;-83
2023/10/18 08:39:25;;;;;;;5.43;3.43;;;12.40;61.40;;;;;;5054529;28;21036;-82
2023/10/18 08:42:01;;;;;;;2.87;2.50;;;12.40;61.40;;;;;;5055053;28;20405;-84
2023/10/18 08:44:31;;;;;;;2.60;2.40;;;12.50;61.50;;;;;;5052941;28;20469;-80
2023/10/18 08:47:11;;;;;;;5.10;3.70;;;12.40;61.40;;;;;;5052728;28;20460;-81
2023/10/18 08:49:51;;;;;;;4.00;2.73;;;12.50;61.40;;;;;;5052116;28;20589;-86
2023/10/18 08:52:21;;;;;;;3.63;3.03;;;12.50;61.30;;;;;;5053501;28;20422;-83
2023/10/18 08:54:52;;;;;;;3.83;3.37;;;12.50;61.40;;;;;;5053158;28;20515;-80
2023/10/18 08:57:34;;;;;;;2.80;2.50;;;12.50;61.40;;;;;;5053226;28;20416;-81
2023/10/18 09:00:55;;;;;;;3.93;3.43;;;12.50;61.40;;;;;;5052602;28;20518;-88
2023/10/18 09:03:01;;;;;;;3.27;2.83;;;12.50;61.40;;;;;;5051888;28;20530;-85
2023/10/18 09:05:30;;;;;;;4.67;3.00;;;12.50;61.40;;;;;;5053850;28;20458;-84
2023/10/18 09:08:03;;;;;;;3.07;2.77;;;12.50;61.40;;;;;;5052669;28;20486;-83
2023/10/18 09:10:46;;;;;;;3.70;2.90;;;12.60;61.40;;;;;;5053262;28;20431;-84
2023/10/18 09:13:33;;;;;;;3.40;2.63;;;12.60;61.20;;;;;;5052364;28;20514;-86
2023/10/18 09:16:12;;;;;;;2.80;2.60;;;12.60;61.10;;;;;;5054000;28;20469;-85
2023/10/18 09:18:40;;;;;;;3.80;2.77;;;12.70;61.10;;;;;;5052615;28;20533;-85
2023/10/18 09:21:17;;;;;;;3.23;2.80;;;12.70;61.00;;;;;;5053691;28;20445;-84
2023/10/18 09:23:49;;;;;;;3.37;2.53;;;12.70;60.90;;;;;;5054224;28;20487;-85
2023/10/18 09:26:26;;;;;;;2.90;2.60;;;12.70;60.90;;;;;;5053723;28;20466;-90
2023/10/18 09:28:59;;;;;;;3.17;2.10;;;12.70;60.90;;;;;;5053720;28;20466;-84
2023/10/18 09:31:54;;;;;;;2.47;2.27;;;12.70;61.00;;;;;;5053705;28;20419;-87
2023/10/18 09:34:33;;;;;;;6.57;2.77;;;12.70;61.00;;;;;;5052790;28;20466;-86
2023/10/18 09:37:04;;;;;;;5.27;2.47;;;12.70;61.00;;;;;;5052926;28;20418;-88
2023/10/18 09:39:38;;;;;;;2.80;2.50;;;12.80;61.10;;;;;;5052873;28;20534;-84
2023/10/18 09:42:12;;;;;;;3.17;2.10;;;12.70;60.90;;;;;;5054160;28;20425;-86
2023/10/18 09:44:42;;;;;;;3.07;2.73;;;12.80;61.00;;;;;;5052403;28;20482;-89
2023/10/18 09:47:10;;;;;;;3.33;2.50;;;12.80;61.00;;;;;;5052966;28;21054;-86
2023/10/18 09:49:40;;;;;;;3.00;2.40;;;12.80;60.90;;;;;;5053133;28;20477;-88
2023/10/18 09:52:11;;;;;;;3.30;2.90;;;12.80;60.80;;;;;;5052922;28;20421;-86
2023/10/18 09:54:49;;;;;;;4.50;1.97;;;12.80;60.90;;;;;;5052756;28;20482;-84
2023/10/18 09:57:24;;;;;;;3.37;3.00;;;12.80;60.90;;;;;;5052398;28;20425;-84
2023/10/18 09:59:55;;;;;;;3.10;2.83;;;12.80;60.90;;;;;;5050974;28;20468;-88
2023/10/18 10:02:24;;;;;;;3.60;2.90;;;12.80;61.00;;;;;;5052751;28;20423;-83
2023/10/18 10:04:54;;;;;;;5.47;3.50;;;12.80;61.00;;;;;;5051718;28;21005;-87
2023/10/18 10:07:37;;;;;;;4.07;2.70;;;12.80;61.00;;;;;;5052736;28;20466;-87
2023/10/18 10:10:17;;;;;;;4.37;2.40;;;12.80;60.90;;;;;;5053210;28;20431;-89
2023/10/18 10:12:49;;;;;;;3.10;2.80;;;12.80;60.90;;;;;;5052067;28;20487;-85
2023/10/18 10:15:18;;;;;;;4.10;2.83;;;12.80;60.90;;;;;;5052998;28;20446;-87
2023/10/18 10:17:57;;;;;;;2.40;2.20;;;12.80;60.80;;;;;;5052229;28;20493;-86
2023/10/18 10:20:31;;;;;;;2.53;2.33;;;12.80;60.80;;;;;;5054335;28;20892;-88
2023/10/18 10:23:06;;;;;;;2.60;2.23;;;12.80;60.80;;;;;;5035935;28;20472;-87
2023/10/18 10:25:36;;;;;;;3.00;2.37;;;12.80;60.90;;;;;;5069083;28;21017;-89
2023/10/18 10:29:09;;;;;;;3.80;3.00;;;12.80;60.90;;;;;;5077554;28;20991;-87
2023/10/18 10:31:50;;;;;;;3.37;3.03;;;12.80;60.80;;;;;;5077650;28;20425;-88
2023/10/18 10:34:24;;;;;;;4.33;2.40;;;12.80;60.90;;;;;;5077541;28;20481;-84
2023/10/18 10:36:54;;;;;;;2.93;2.40;;;12.80;60.90;;;;;;5077244;28;20439;-89
2023/10/18 10:39:30;;;;;;;3.27;2.33;;;12.80;60.90;;;;;;5077979;28;20489;-86
2023/10/18 10:42:09;;;;;;;3.53;3.23;;;12.80;60.70;;;;;;5077925;28;20416;-83
2023/10/18 10:45:02;;;;;;;3.77;2.93;;;12.80;60.80;;;;;;5077862;28;20472;-84
2023/10/18 10:47:42;;;;;;;3.10;2.80;;;12.80;61.00;;;;;;5078744;28;20481;-91
2023/10/18 10:50:32;;;;;;;3.20;2.70;;;12.80;61.00;;;;;;5078664;28;20410;-89
2023/10/18 10:53:05;;;;;;;4.30;2.97;;;12.80;61.00;;;;;;5062288;28;20469;-87
2023/10/18 10:55:34;;;;;;;4.77;3.10;;;12.80;61.00;;;;;;5080611;28;20454;-88
2023/10/18 10:58:15;;;;;;;3.60;3.30;;;12.80;61.10;;;;;;5080240;28;20467;-87
2023/10/18 11:01:04;;;;;;;5.93;3.07;;;12.80;61.00;;;;;;5081449;28;20810;-83
2023/10/18 11:03:52;;;;;;;2.87;2.57;;;12.80;61.10;;;;;;5065470;28;20957;-90
2023/10/18 11:06:23;;;;;;;2.60;2.40;;;12.80;61.10;;;;;;5081522;28;20432;-85
2023/10/18 11:08:53;;;;;;;3.07;2.57;;;12.80;61.30;;;;;;5078368;28;20461;-86
2023/10/18 11:11:22;;;;;;;3.73;3.17;;;12.80;61.10;;;;;;5083277;28;20425;-84
2023/10/18 11:13:52;;;;;;;3.57;2.70;;;12.80;61.20;;;;;;5063480;28;20483;-86
2023/10/18 11:16:22;;;;;;;3.20;2.53;;;12.80;61.10;;;;;;5084505;28;20495;-86
2023/10/18 11:18:52;;;;;;;3.90;2.70;;;12.80;61.20;;;;;;5083067;28;20593;-87
2023/10/18 11:21:24;;;;;;;2.80;2.33;;;12.80;61.20;;;;;;5083984;28;20808;-89
2023/10/18 11:23:57;;;;;;;3.70;3.27;;;12.80;61.20;;;;;;5083250;28;21037;-88
2023/10/18 11:26:27;;;;;;;3.63;2.33;;;12.80;61.30;;;;;;5078137;28;20445;-91
2023/10/18 11:28:58;;;;;;;3.13;2.60;;;12.80;61.40;;;;;;5081853;28;20472;-90
2023/10/18 11:31:28;;;;;;;3.93;2.80;;;12.80;61.50;;;;;;5087850;28;20517;-92
2023/10/18 11:34:06;;;;;;;3.40;2.97;;;12.80;61.50;;;;;;5082207;28;20899;-83
2023/10/18 11:36:35;;;;;;;2.67;2.40;;;12.80;61.60;;;;;;5073894;28;20414;-86
2023/10/18 11:39:17;;;;;;;4.63;2.77;;;12.80;61.70;;;;;;5072289;28;20567;-87
2023/10/18 11:41:49;;;;;;;4.70;3.33;;;12.80;61.60;;;;;;5073660;28;20423;-84
2023/10/18 11:44:30;;;;;;;2.30;2.10;;;12.80;61.50;;;;;;5090006;28;20477;-85
2023/10/18 11:47:18;;;;;;;4.50;3.07;;;12.80;61.70;;;;;;5072775;28;20411;-85
2023/10/18 11:49:52;;;;;;;3.33;2.97;;;12.80;61.70;;;;;;5089082;28;20465;-81
2023/10/18 11:52:22;;;;;;;4.40;2.47;;;12.80;61.60;;;;;;5073575;28;20474;-83
2023/10/18 11:54:53;;;;;;;2.80;2.40;;;12.80;61.50;;;;;;5072006;28;20498;-84
2023/10/18 11:57:28;;;;;;;3.40;2.77;;;12.80;61.50;;;;;;5073189;28;20881;-82
2023/10/18 12:00:20;;;;;;;3.77;2.77;;;12.80;61.50;;;;;;5095345;28;20433;-84
2023/10/18 12:02:49;;;;;;;3.90;2.90;;;12.80;61.50;;;;;;5098026;28;20484;-86
2023/10/18 12:05:23;;;;;;;3.83;2.93;;;12.80;61.60;;;;;;5084375;28;20851;-87
2023/10/18 12:07:53;;;;;;;3.60;2.77;;;12.80;61.50;;;;;;5083600;28;20453;-87
2023/10/18 12:10:34;;;;;;;2.53;1.97;;;12.80;61.60;;;;;;5101013;28;20397;-83
2023/10/18 12:13:06;;;;;;;2.90;2.60;;;12.80;61.70;;;;;;5084002;28;21050;-85
2023/10/18 12:15:35;;;;;;;3.70;3.40;;;12.80;61.70;;;;;;5085125;28;20468;-85
2023/10/18 12:18:05;;;;;;;3.27;2.50;;;12.80;61.80;;;;;;5081608;28;20468;-84
2023/10/18 12:20:36;;;;;;;2.90;2.70;;;12.80;61.70;;;;;;5082258;28;20406;-89
2023/10/18 12:23:09;;;;;;;4.40;2.77;;;12.80;61.80;;;;;;5072589;28;20844;-84
2023/10/18 12:25:42;;;;;;;3.53;2.87;;;12.80;61.80;;;;;;5068709;28;20463;-84
2023/10/18 12:28:13;;;;;;;2.67;2.47;;;12.80;61.90;;;;;;5082402;28;20470;-85
2023/10/18 12:30:43;;;;;;;3.03;2.73;;;12.80;61.90;;;;;;5083066;28;20419;-88
2023/10/18 12:33:19;;;;;;;3.63;2.90;;;12.80;62.00;;;;;;5082240;28;20461;-87
2023/10/18 12:35:48;;;;;;;3.47;2.53;;;12.80;62.00;;;;;;5083931;28;20452;-89
2023/10/18 12:38:20;;;;;;;3.10;2.53;;;12.80;62.00;;;;;;5083501;28;20480;-87
2023/10/18 12:40:58;;;;;;;4.10;2.40;;;12.80;61.90;;;;;;5099861;28;20474;-85
2023/10/18 12:43:31;;;;;;;3.23;2.23;;;12.80;62.00;;;;;;5084012;28;20476;-88
2023/10/18 12:46:04;;;;;;;2.40;2.20;;;12.80;62.10;;;;;;5099394;28;20438;-84
2023/10/18 12:48:35;;;;;;;3.23;2.93;;;12.80;62.10;;;;;;5082201;28;20457;-91
2023/10/18 12:51:09;;;;;;;3.70;2.10;;;12.80;62.20;;;;;;5099485;28;20825;-84
2023/10/18 12:53:41;;;;;;;2.90;2.60;;;12.80;62.10;;;;;;5082009;28;20702;-84
2023/10/18 12:56:19;;;;;;;3.60;2.80;;;12.80;62.10;;;;;;5081982;28;20461;-89
2023/10/18 12:58:54;;;;;;;3.03;2.73;;;12.80;62.10;;;;;;5097519;28;20488;-86
2023/10/18 13:01:31;;;;;;;3.23;2.50;;;12.80;62.20;;;;;;5084102;28;20410;-85
2023/10/18 13:04:00;;;;;;;4.80;3.13;;;12.80;62.30;;;;;;5079782;28;20552;-85
2023/10/18 13:06:42;;;;;;;2.40;2.03;;;12.80;62.20;;;;;;5080505;28;20465;-88
2023/10/18 13:09:18;;;;;;;3.50;2.13;;;12.80;62.30;;;;;;5097718;28;20565;-85
2023/10/18 13:11:53;;;;;;;2.50;2.20;;;12.80;62.10;;;;;;5079511;28;20727;-83
2023/10/18 13:14:24;;;;;;;2.87;2.50;;;12.80;62.30;;;;;;5078297;28;20991;-90
2023/10/18 13:16:53;;;;;;;2.80;2.13;;;12.80;62.30;;;;;;5078499;28;20424;-88
2023/10/18 13:19:24;;;;;;;2.80;2.50;;;12.80;62.20;;;;;;5084193;28;20454;-82
2023/10/18 13:21:52;;;;;;;2.57;1.80;;;12.80;62.20;;;;;;5094191;28;20434;-85
2023/10/18 13:24:28;;;;;;;3.13;2.30;;;12.80;62.10;;;;;;5076406;28;20507;-89
2023/10/18 13:27:01;;;;;;;2.40;2.20;;;12.80;62.20;;;;;;5077864;28;20410;-89
2023/10/18 13:29:32;;;;;;;2.60;2.20;;;12.80;62.20;;;;;;5077569;28;20475;-89